Atlanta, MI

4:24 PM EDT on May 04, 2015 (GMT -0400)
Moon Lake | | Change Station
CLOSE
Current Station
Personal Weather Station
Location: Lewiston, MI
Elevation: 1240 ft
Nearby Weather Stations

Elev 1240 ft 44.84 °N, 84.26 °W | Updated 14 minutes ago

Clear
Clear
76.5 °F
Feels Like 77 °F
N
2.7
Wind Variable Wind from NNW
Gusts 2.7 mph

Today
High -- | Low -- °F
--% Chance of Precip.
Yesterday
High -- | Low -- °F
Precip. -- in
6:21 AM 8:45 PM
Waxing Gibbous, 99% visible
Pressure 30.12 in
Visibility 10.0 miles
Clouds Clear
Heat Index 77 °F
Dew Point 41 °F
Humidity 28%
Rainfall 0.06 in
Snow Depth Not available.
UV 7 out of 12
Pollen 8.80 out of 12
Air Quality Not available.
Flu Activity Regional
METAR KGLR 041953Z AUTO 34008G16KT 320V020 10SM CLR 18/03 A3011 RMK AO2 SLP198 T01830028

More Conditions Fewer Conditions

Pressure 30.12 in
Visibility 10.0 miles
Clouds Clear
Heat Index 77 °F
Dew Point 41 °F
Humidity 28%
Rainfall 0.06 in
Snow Depth Not available.
UV 7 out of 12
Pollen 8.80 out of 12
Air Quality Not available.
Flu Activity Regional
METAR KGLR 041953Z AUTO 34008G16KT 320V020 10SM CLR 18/03 A3011 RMK AO2 SLP198 T01830028

More Conditions Fewer Conditions

Nepal has a long way to go to dig out and rebuild from a devastating earthquake. We have teamed up with several charities and organizations to make contributing to the relief effort as easy as possible.
How you can help: Portlight Strategies | Red Cross
Nowcast | as of 4:00 PM EDT on May 4, 2015

At 5 PM...partly cloudy. Temperature 69. Northwest winds 9 mph. At 7 PM...mostly clear. Temperature 67. Northwest winds 7 mph. At 9 PM...mostly clear. Temperature 58. Light winds. At 11 PM...mostly clear. Temperature 45. Light winds.

×

10-Day Weather Forecast

Almanac

Astronomy

May. 04, 2015 Rise Set
Actual Time
Civil Twilight
Nautical Twilight
Astronomical Twilight
Moon
Length of Visible Light
Length of Day
Tomorrow will be .
, % of the Moon is Illuminated

Today's Extremes

State Highs State Lows

Community

WunderPhotos

Upload Photos

1,818,680 photos uploaded!

WunderBlogs® & News

Nearby

Air Quality

  Air Quality AQ Index Pollutant
Not available.

Snow Depth

Station Depth Elevation

Earthquake Activity

City Distance Mag. Time & Date
Minimum magnitude displayed is 2.5.

Coastal Water Temperatures

Place Temperature

Stations

Nearby Weather Stations

Station Location Temp. Windchill Dew Point Humidity Wind Precip. Elev Updated Type